sensor_id;sensor_type;location;lat;lon;timestamp;P1;durP1;ratioP1;P2;durP2;ratioP2
42092;SDS011;28974;50.316;18.960;2022-11-20T00:06:23;206.45;;;73.60;;
42092;SDS011;28974;50.316;18.960;2022-11-20T00:18:24;271.27;;;88.15;;
42092;SDS011;28974;50.316;18.960;2022-11-20T00:30:24;296.15;;;103.07;;
42092;SDS011;28974;50.316;18.960;2022-11-20T00:42:24;309.55;;;104.40;;
42092;SDS011;28974;50.316;18.960;2022-11-20T00:54:25;288.40;;;103.90;;
42092;SDS011;28974;50.316;18.960;2022-11-20T01:18:28;447.92;;;149.73;;
42092;SDS011;28974;50.316;18.960;2022-11-20T01:30:28;376.90;;;124.28;;
42092;SDS011;28974;50.316;18.960;2022-11-20T01:42:29;382.63;;;125.53;;
42092;SDS011;28974;50.316;18.960;2022-11-20T01:54:49;330.35;;;104.85;;
42092;SDS011;28974;50.316;18.960;2022-11-20T02:06:53;297.80;;;102.73;;
42092;SDS011;28974;50.316;18.960;2022-11-20T02:18:56;287.83;;;98.55;;
42092;SDS011;28974;50.316;18.960;2022-11-20T02:30:57;285.05;;;97.90;;
42092;SDS011;28974;50.316;18.960;2022-11-20T02:42:57;251.05;;;91.45;;
42092;SDS011;28974;50.316;18.960;2022-11-20T02:54:58;229.30;;;81.35;;
42092;SDS011;28974;50.316;18.960;2022-11-20T03:06:58;227.63;;;80.05;;
42092;SDS011;28974;50.316;18.960;2022-11-20T03:18:58;212.27;;;74.55;;
42092;SDS011;28974;50.316;18.960;2022-11-20T03:31:04;237.40;;;84.85;;
42092;SDS011;28974;50.316;18.960;2022-11-20T03:43:04;218.90;;;77.53;;
42092;SDS011;28974;50.316;18.960;2022-11-20T03:55:05;222.20;;;83.05;;
42092;SDS011;28974;50.316;18.960;2022-11-20T04:07:05;212.10;;;77.60;;
42092;SDS011;28974;50.316;18.960;2022-11-20T04:19:08;246.27;;;90.75;;
42092;SDS011;28974;50.316;18.960;2022-11-20T04:31:10;238.98;;;77.43;;
42092;SDS011;28974;50.316;18.960;2022-11-20T04:43:11;204.70;;;75.68;;
42092;SDS011;28974;50.316;18.960;2022-11-20T04:55:11;236.30;;;82.22;;
42092;SDS011;28974;50.316;18.960;2022-11-20T05:07:12;229.10;;;79.82;;
42092;SDS011;28974;50.316;18.960;2022-11-20T05:19:12;202.93;;;74.25;;
42092;SDS011;28974;50.316;18.960;2022-11-20T05:31:14;201.32;;;71.97;;
42092;SDS011;28974;50.316;18.960;2022-11-20T05:43:14;226.90;;;79.22;;
42092;SDS011;28974;50.316;18.960;2022-11-20T05:55:15;224.40;;;77.57;;
42092;SDS011;28974;50.316;18.960;2022-11-20T06:07:15;202.23;;;74.90;;
42092;SDS011;28974;50.316;18.960;2022-11-20T06:19:15;217.07;;;72.82;;
42092;SDS011;28974;50.316;18.960;2022-11-20T06:31:17;201.90;;;72.10;;
42092;SDS011;28974;50.316;18.960;2022-11-20T06:43:17;227.65;;;80.10;;
42092;SDS011;28974;50.316;18.960;2022-11-20T06:55:17;231.80;;;79.40;;
42092;SDS011;28974;50.316;18.960;2022-11-20T07:07:18;228.20;;;83.07;;
42092;SDS011;28974;50.316;18.960;2022-11-20T07:19:18;276.70;;;102.32;;
42092;SDS011;28974;50.316;18.960;2022-11-20T07:31:18;280.05;;;108.60;;
42092;SDS011;28974;50.316;18.960;2022-11-20T07:43:19;290.25;;;103.13;;
42092;SDS011;28974;50.316;18.960;2022-11-20T07:55:19;315.85;;;113.90;;
42092;SDS011;28974;50.316;18.960;2022-11-20T08:07:19;383.38;;;137.10;;
42092;SDS011;28974;50.316;18.960;2022-11-20T08:19:19;312.63;;;125.15;;
42092;SDS011;28974;50.316;18.960;2022-11-20T08:31:20;293.27;;;108.07;;
42092;SDS011;28974;50.316;18.960;2022-11-20T08:43:20;197.65;;;79.68;;
42092;SDS011;28974;50.316;18.960;2022-11-20T08:55:21;186.50;;;70.45;;
42092;SDS011;28974;50.316;18.960;2022-11-20T09:07:21;185.48;;;73.57;;
42092;SDS011;28974;50.316;18.960;2022-11-20T09:19:23;178.27;;;67.57;;
42092;SDS011;28974;50.316;18.960;2022-11-20T09:31:24;160.25;;;59.53;;
42092;SDS011;28974;50.316;18.960;2022-11-20T09:43:30;169.88;;;66.53;;
42092;SDS011;28974;50.316;18.960;2022-11-20T09:55:32;154.43;;;59.40;;
42092;SDS011;28974;50.316;18.960;2022-11-20T10:07:42;136.85;;;52.75;;
42092;SDS011;28974;50.316;18.960;2022-11-20T10:19:56;120.28;;;46.58;;
42092;SDS011;28974;50.316;18.960;2022-11-20T10:32:13;124.72;;;46.40;;
42092;SDS011;28974;50.316;18.960;2022-11-20T10:44:15;118.78;;;45.53;;
42092;SDS011;28974;50.316;18.960;2022-11-20T11:08:45;110.03;;;43.03;;
42092;SDS011;28974;50.316;18.960;2022-11-20T11:20:49;100.93;;;38.80;;
42092;SDS011;28974;50.316;18.960;2022-11-20T11:32:49;113.60;;;42.17;;
42092;SDS011;28974;50.316;18.960;2022-11-20T11:44:50;131.57;;;49.17;;
42092;SDS011;28974;50.316;18.960;2022-11-20T11:57:10;152.00;;;55.90;;
42092;SDS011;28974;50.316;18.960;2022-11-20T12:09:12;146.70;;;57.33;;
42092;SDS011;28974;50.316;18.960;2022-11-20T12:21:17;132.35;;;52.85;;
42092;SDS011;28974;50.316;18.960;2022-11-20T12:33:20;151.60;;;59.83;;
42092;SDS011;28974;50.316;18.960;2022-11-20T12:57:29;157.20;;;60.92;;
42092;SDS011;28974;50.316;18.960;2022-11-20T13:09:40;141.15;;;55.75;;
42092;SDS011;28974;50.316;18.960;2022-11-20T13:21:44;164.45;;;67.13;;
42092;SDS011;28974;50.316;18.960;2022-11-20T13:33:46;175.82;;;71.88;;
42092;SDS011;28974;50.316;18.960;2022-11-20T14:09:59;172.48;;;64.53;;
42092;SDS011;28974;50.316;18.960;2022-11-20T14:34:15;202.03;;;74.23;;
42092;SDS011;28974;50.316;18.960;2022-11-20T14:46:17;212.02;;;83.60;;
42092;SDS011;28974;50.316;18.960;2022-11-20T14:58:21;226.52;;;93.72;;
42092;SDS011;28974;50.316;18.960;2022-11-20T15:10:26;221.75;;;85.72;;
42092;SDS011;28974;50.316;18.960;2022-11-20T15:22:26;185.68;;;73.78;;
42092;SDS011;28974;50.316;18.960;2022-11-20T15:34:27;215.60;;;86.72;;
42092;SDS011;28974;50.316;18.960;2022-11-20T15:46:27;216.05;;;85.15;;
42092;SDS011;28974;50.316;18.960;2022-11-20T15:58:29;226.05;;;90.80;;
42092;SDS011;28974;50.316;18.960;2022-11-20T16:10:29;228.73;;;88.50;;
42092;SDS011;28974;50.316;18.960;2022-11-20T16:22:29;211.80;;;85.75;;
42092;SDS011;28974;50.316;18.960;2022-11-20T16:34:29;201.10;;;76.63;;
42092;SDS011;28974;50.316;18.960;2022-11-20T16:46:30;172.90;;;69.38;;
42092;SDS011;28974;50.316;18.960;2022-11-20T16:58:30;153.77;;;58.60;;
42092;SDS011;28974;50.316;18.960;2022-11-20T17:10:31;160.23;;;59.45;;
42092;SDS011;28974;50.316;18.960;2022-11-20T17:22:31;171.85;;;58.78;;
42092;SDS011;28974;50.316;18.960;2022-11-20T17:34:31;137.02;;;55.30;;
42092;SDS011;28974;50.316;18.960;2022-11-20T17:46:32;147.30;;;58.75;;
42092;SDS011;28974;50.316;18.960;2022-11-20T17:58:33;161.35;;;62.90;;
42092;SDS011;28974;50.316;18.960;2022-11-20T18:10:33;135.68;;;54.33;;
42092;SDS011;28974;50.316;18.960;2022-11-20T18:22:34;192.75;;;68.72;;
42092;SDS011;28974;50.316;18.960;2022-11-20T18:34:34;213.57;;;81.43;;
42092;SDS011;28974;50.316;18.960;2022-11-20T18:46:34;159.15;;;49.15;;
42092;SDS011;28974;50.316;18.960;2022-11-20T18:58:35;173.32;;;58.35;;
42092;SDS011;28974;50.316;18.960;2022-11-20T19:10:35;199.02;;;76.18;;
42092;SDS011;28974;50.316;18.960;2022-11-20T19:22:36;221.18;;;75.90;;
42092;SDS011;28974;50.316;18.960;2022-11-20T19:34:36;167.98;;;60.65;;
42092;SDS011;28974;50.316;18.960;2022-11-20T19:46:37;171.18;;;55.35;;
42092;SDS011;28974;50.316;18.960;2022-11-20T19:58:38;151.40;;;52.38;;
42092;SDS011;28974;50.316;18.960;2022-11-20T20:10:38;174.13;;;62.72;;
42092;SDS011;28974;50.316;18.960;2022-11-20T20:22:38;177.88;;;61.63;;
42092;SDS011;28974;50.316;18.960;2022-11-20T20:34:39;166.98;;;56.72;;
42092;SDS011;28974;50.316;18.960;2022-11-20T20:46:39;196.05;;;68.28;;
42092;SDS011;28974;50.316;18.960;2022-11-20T20:58:40;185.38;;;65.10;;
42092;SDS011;28974;50.316;18.960;2022-11-20T21:10:41;141.77;;;50.75;;
42092;SDS011;28974;50.316;18.960;2022-11-20T21:22:41;170.30;;;60.15;;
42092;SDS011;28974;50.316;18.960;2022-11-20T21:34:41;187.40;;;66.43;;
42092;SDS011;28974;50.316;18.960;2022-11-20T21:46:42;158.23;;;58.22;;
42092;SDS011;28974;50.316;18.960;2022-11-20T21:58:44;135.07;;;52.28;;
42092;SDS011;28974;50.316;18.960;2022-11-20T22:10:51;140.88;;;50.75;;
42092;SDS011;28974;50.316;18.960;2022-11-20T22:22:52;176.30;;;63.80;;
42092;SDS011;28974;50.316;18.960;2022-11-20T22:34:52;165.00;;;59.30;;
42092;SDS011;28974;50.316;18.960;2022-11-20T22:46:52;165.43;;;55.65;;
42092;SDS011;28974;50.316;18.960;2022-11-20T22:58:53;198.60;;;69.93;;
42092;SDS011;28974;50.316;18.960;2022-11-20T23:10:57;237.50;;;77.97;;
42092;SDS011;28974;50.316;18.960;2022-11-20T23:22:57;223.95;;;77.13;;
42092;SDS011;28974;50.316;18.960;2022-11-20T23:34:58;233.95;;;83.97;;
42092;SDS011;28974;50.316;18.960;2022-11-20T23:46:58;234.40;;;85.82;;
42092;SDS011;28974;50.316;18.960;2022-11-20T23:58:58;159.15;;;60.15;;
